createdAt,value
2023-05-14T00:00:16.648Z,7.98
2023-05-14T00:02:18.432Z,8.00
2023-05-14T00:04:20.168Z,8.00
2023-05-14T00:06:21.695Z,8.04
2023-05-14T00:08:23.283Z,8.00
2023-05-14T00:10:26.824Z,8.05
2023-05-14T00:12:29.204Z,8.07
2023-05-14T00:14:31.221Z,8.08
2023-05-14T00:16:32.865Z,8.07
2023-05-14T00:18:34.594Z,8.07
2023-05-14T00:20:36.377Z,8.06
2023-05-14T00:22:39.427Z,7.97
2023-05-14T00:24:41.048Z,8.01
2023-05-14T00:26:43.199Z,7.98
2023-05-14T00:28:45.237Z,7.93
2023-05-14T00:30:47.372Z,7.80
2023-05-14T00:32:50.634Z,7.75
2023-05-14T00:34:52.208Z,7.72
2023-05-14T00:36:53.847Z,7.67
2023-05-14T00:38:55.882Z,7.67
2023-05-14T00:40:57.904Z,7.67
2023-05-14T00:42:59.766Z,7.57
2023-05-14T00:45:01.407Z,7.59
2023-05-14T00:47:03.567Z,7.51
2023-05-14T00:49:05.485Z,7.51
2023-05-14T00:51:08.016Z,7.55
2023-05-14T00:53:10.752Z,7.39
2023-05-14T00:55:16.419Z,7.46
2023-05-14T00:57:19.109Z,7.50
2023-05-14T00:59:20.681Z,7.43
2023-05-14T01:01:22.533Z,7.41
2023-05-14T01:03:24.250Z,7.33
2023-05-14T01:05:31.008Z,7.36
2023-05-14T01:07:53.916Z,7.27
2023-05-14T01:10:08.383Z,7.23
2023-05-14T01:12:37.311Z,7.11
2023-05-14T01:14:55.296Z,7.24
2023-05-14T01:16:59.809Z,7.19
2023-05-14T01:19:02.682Z,7.19
2023-05-14T01:21:04.691Z,7.15
2023-05-14T01:23:07.286Z,7.12
2023-05-14T01:25:09.239Z,7.10
2023-05-14T01:27:10.952Z,7.10
2023-05-14T01:29:21.578Z,7.18
2023-05-14T01:31:28.032Z,7.15
2023-05-14T01:33:33.476Z,7.12
2023-05-14T01:35:35.411Z,7.13
2023-05-14T01:37:38.882Z,7.05
2023-05-14T01:39:41.967Z,7.08
2023-05-14T01:41:44.182Z,6.89
2023-05-14T01:43:45.883Z,6.97
2023-05-14T01:45:47.731Z,6.99
2023-05-14T01:47:50.048Z,6.92
2023-05-14T01:49:51.756Z,6.85
2023-05-14T01:51:53.432Z,6.86
2023-05-14T01:53:55.010Z,6.86
2023-05-14T01:55:56.781Z,6.75
2023-05-14T01:57:58.672Z,6.73
2023-05-14T02:00:00.653Z,6.69
2023-05-14T02:02:05.995Z,6.73
2023-05-14T02:04:07.670Z,6.77
2023-05-14T02:06:09.779Z,6.70
2023-05-14T02:08:11.313Z,6.69
2023-05-14T02:10:13.012Z,6.80
2023-05-14T02:12:14.893Z,6.75
2023-05-14T02:14:16.559Z,6.82
2023-05-14T02:16:19.175Z,6.77
2023-05-14T02:18:20.913Z,6.74
2023-05-14T02:20:23.184Z,6.72
2023-05-14T02:22:25.060Z,6.74
2023-05-14T02:24:27.214Z,6.70
2023-05-14T02:26:28.760Z,6.68
2023-05-14T02:28:30.697Z,6.66
2023-05-14T02:30:32.834Z,6.69
2023-05-14T02:32:34.536Z,6.74
2023-05-14T02:34:36.473Z,6.76
2023-05-14T02:36:38.033Z,6.76
2023-05-14T02:38:39.667Z,6.76
2023-05-14T02:40:41.475Z,6.78
2023-05-14T02:42:43.144Z,6.78
2023-05-14T02:44:44.807Z,6.79
2023-05-14T02:46:46.514Z,6.85
2023-05-14T02:48:48.110Z,6.89
2023-05-14T02:50:51.943Z,6.79
2023-05-14T02:52:53.658Z,6.78
2023-05-14T02:54:55.188Z,6.80
2023-05-14T02:56:56.750Z,6.80
2023-05-14T02:58:58.460Z,6.81
2023-05-14T03:01:00.490Z,6.80
2023-05-14T03:03:02.565Z,6.75
2023-05-14T03:05:05.009Z,6.77
2023-05-14T03:07:06.604Z,6.69
2023-05-14T03:09:08.160Z,6.76
2023-05-14T03:11:10.094Z,6.76
2023-05-14T03:13:12.230Z,6.73
2023-05-14T03:15:13.905Z,6.77
2023-05-14T03:17:15.578Z,6.77
2023-05-14T03:19:17.288Z,6.83
2023-05-14T03:21:19.108Z,6.82
2023-05-14T03:23:20.878Z,6.83
2023-05-14T03:25:22.482Z,6.78
2023-05-14T03:27:24.102Z,6.71
2023-05-14T03:29:25.717Z,6.72
2023-05-14T03:31:27.508Z,6.73
2023-05-14T03:33:31.375Z,6.64
2023-05-14T03:35:33.130Z,6.65
2023-05-14T03:37:34.740Z,6.64
2023-05-14T03:39:36.425Z,6.61
2023-05-14T03:41:39.734Z,6.60
2023-05-14T03:43:41.485Z,6.62
2023-05-14T03:45:44.021Z,6.68
2023-05-14T03:47:45.709Z,6.63
2023-05-14T03:49:47.335Z,6.65
2023-05-14T03:51:50.875Z,6.61
2023-05-14T03:53:52.526Z,6.66
2023-05-14T03:55:54.774Z,6.66
2023-05-14T03:57:56.390Z,6.61
2023-05-14T03:59:58.156Z,6.68
2023-05-14T04:01:59.825Z,6.69
2023-05-14T04:04:01.614Z,6.71
2023-05-14T04:06:03.558Z,6.76
2023-05-14T04:08:05.811Z,6.81
2023-05-14T04:10:08.198Z,6.86
2023-05-14T04:12:11.943Z,6.83
2023-05-14T04:14:13.683Z,6.88
2023-05-14T04:16:15.299Z,6.95
2023-05-14T04:18:17.298Z,6.98
2023-05-14T04:20:19.060Z,7.05
2023-05-14T04:22:20.723Z,7.11
2023-05-14T04:24:22.542Z,7.18
2023-05-14T04:26:24.190Z,7.27
2023-05-14T04:28:25.767Z,7.34
2023-05-14T04:30:27.285Z,7.47
2023-05-14T04:32:30.160Z,7.56
2023-05-14T04:34:31.756Z,7.71
2023-05-14T04:36:33.806Z,7.88
2023-05-14T04:38:35.363Z,8.00
2023-05-14T04:40:37.413Z,8.13
2023-05-14T04:42:39.268Z,8.22
2023-05-14T04:44:40.928Z,8.34
2023-05-14T04:46:42.467Z,8.50
2023-05-14T04:48:44.106Z,8.64
2023-05-14T04:50:45.955Z,8.82
2023-05-14T04:52:47.706Z,8.98
2023-05-14T04:54:49.498Z,9.11
2023-05-14T04:56:51.303Z,9.23
2023-05-14T04:58:52.934Z,9.45
2023-05-14T05:00:54.498Z,9.54
2023-05-14T05:02:56.101Z,9.72
2023-05-14T05:04:58.030Z,9.84
2023-05-14T05:06:59.619Z,9.94
2023-05-14T05:09:02.322Z,9.99
2023-05-14T05:11:04.719Z,10.02
2023-05-14T05:13:06.287Z,10.02
2023-05-14T05:15:09.456Z,10.02
2023-05-14T05:17:11.053Z,10.07
2023-05-14T05:19:12.773Z,10.11
2023-05-14T05:21:14.467Z,10.18
2023-05-14T05:23:16.092Z,10.27
2023-05-14T05:25:17.865Z,10.38
2023-05-14T05:27:20.986Z,10.50
2023-05-14T05:29:23.349Z,10.66
2023-05-14T05:31:25.238Z,10.75
2023-05-14T05:33:26.917Z,10.90
2023-05-14T05:35:28.672Z,10.99
2023-05-14T05:37:30.867Z,11.07
2023-05-14T05:39:34.749Z,11.17
2023-05-14T05:41:36.667Z,11.30
2023-05-14T05:43:38.665Z,11.40
2023-05-14T05:45:40.638Z,11.46
2023-05-14T05:47:42.290Z,11.48
2023-05-14T05:49:43.934Z,11.55
2023-05-14T05:51:45.457Z,11.62
2023-05-14T05:53:46.994Z,11.67
2023-05-14T05:55:48.572Z,11.75
2023-05-14T05:57:50.154Z,11.73
2023-05-14T05:59:51.702Z,11.75
2023-05-14T06:01:53.462Z,11.74
2023-05-14T06:03:55.098Z,11.85
2023-05-14T06:05:56.756Z,11.92
2023-05-14T06:07:58.749Z,12.00
2023-05-14T06:10:00.487Z,12.04
2023-05-14T06:12:02.153Z,12.18
2023-05-14T06:14:04.543Z,12.18
2023-05-14T06:16:06.247Z,12.26
2023-05-14T06:18:07.885Z,12.26
2023-05-14T06:20:09.903Z,12.31
2023-05-14T06:22:11.699Z,12.27
2023-05-14T06:24:13.369Z,12.20
2023-05-14T06:26:15.346Z,12.07
2023-05-14T06:28:16.892Z,11.92
2023-05-14T06:30:18.542Z,12.01
2023-05-14T06:32:20.292Z,12.22
2023-05-14T06:34:22.010Z,12.40
2023-05-14T06:36:23.638Z,12.69
2023-05-14T06:38:25.632Z,12.88
2023-05-14T06:40:27.367Z,13.12
2023-05-14T06:42:29.128Z,13.20
2023-05-14T06:44:31.402Z,13.47
2023-05-14T06:46:33.188Z,13.63
2023-05-14T06:48:35.246Z,13.66
2023-05-14T06:50:36.909Z,13.55
2023-05-14T06:52:38.753Z,13.57
2023-05-14T06:54:40.395Z,13.53
2023-05-14T06:56:42.530Z,13.68
2023-05-14T06:58:45.616Z,13.83
2023-05-14T07:00:48.098Z,13.88
2023-05-14T07:02:49.744Z,13.89
2023-05-14T07:04:51.390Z,14.14
2023-05-14T07:06:52.992Z,14.26
2023-05-14T07:08:54.649Z,14.37
2023-05-14T07:10:57.297Z,14.52
2023-05-14T07:12:58.897Z,14.51
2023-05-14T07:15:00.517Z,14.43
2023-05-14T07:17:02.165Z,14.58
2023-05-14T07:19:03.899Z,14.47
2023-05-14T07:21:06.568Z,14.64
2023-05-14T07:23:08.324Z,14.71
2023-05-14T07:25:10.510Z,14.72
2023-05-14T07:27:12.554Z,14.80
2023-05-14T07:29:14.298Z,14.81
2023-05-14T07:31:15.893Z,14.81
2023-05-14T07:33:17.689Z,15.14
2023-05-14T07:35:19.326Z,15.47
2023-05-14T07:37:23.890Z,15.69
2023-05-14T07:39:25.907Z,15.83
2023-05-14T07:41:27.618Z,15.75
2023-05-14T07:43:29.383Z,15.48
2023-05-14T07:45:31.026Z,15.49
2023-05-14T07:47:33.012Z,15.30
2023-05-14T07:49:35.317Z,15.39
2023-05-14T07:51:37.217Z,15.60
2023-05-14T07:53:38.783Z,15.66
2023-05-14T07:55:41.567Z,15.73
2023-05-14T07:57:43.416Z,15.95
2023-05-14T07:59:45.038Z,16.10
2023-05-14T08:01:46.884Z,16.10
2023-05-14T08:03:48.879Z,16.04
2023-05-14T08:05:51.724Z,16.19
2023-05-14T08:07:53.322Z,16.23
2023-05-14T08:09:54.848Z,16.37
2023-05-14T08:11:56.678Z,16.62
2023-05-14T08:13:58.315Z,16.66
2023-05-14T08:16:00.233Z,16.60
2023-05-14T08:18:04.208Z,16.74
2023-05-14T08:20:07.360Z,16.92
2023-05-14T08:22:10.350Z,17.24
2023-05-14T08:24:12.307Z,17.38
2023-05-14T08:26:14.298Z,17.42
2023-05-14T08:28:16.167Z,17.52
2023-05-14T08:30:18.091Z,17.47
2023-05-14T08:32:23.668Z,17.39
2023-05-14T08:34:26.394Z,17.44
2023-05-14T08:36:27.964Z,17.61
2023-05-14T08:38:29.568Z,17.76
2023-05-14T08:40:31.191Z,18.24
2023-05-14T08:42:33.092Z,18.60
2023-05-14T08:44:43.640Z,18.75
2023-05-14T08:46:45.671Z,19.16
2023-05-14T08:48:52.828Z,19.40
2023-05-14T08:50:55.105Z,19.76
2023-05-14T08:52:56.813Z,19.97
2023-05-14T08:55:04.511Z,20.12
2023-05-14T08:57:09.675Z,20.29
2023-05-14T08:59:11.717Z,20.23
2023-05-14T09:01:13.384Z,20.18
2023-05-14T09:03:15.967Z,19.80
2023-05-14T09:05:19.442Z,19.63
2023-05-14T09:07:21.135Z,19.46
2023-05-14T09:09:23.417Z,19.31
2023-05-14T09:11:25.500Z,19.16
2023-05-14T09:13:28.429Z,19.23
2023-05-14T09:15:31.202Z,19.37
2023-05-14T09:17:33.715Z,19.36
2023-05-14T09:19:35.444Z,18.49
2023-05-14T09:21:37.175Z,18.45
2023-05-14T09:23:42.189Z,18.56
2023-05-14T09:25:43.843Z,18.73
2023-05-14T09:27:50.081Z,18.76
2023-05-14T09:29:51.870Z,18.66
2023-05-14T09:31:54.927Z,18.56
2023-05-14T09:33:56.602Z,18.66
2023-05-14T09:36:02.596Z,18.79
2023-05-14T09:38:04.580Z,18.80
2023-05-14T09:40:09.059Z,18.69
2023-05-14T09:42:10.780Z,18.25
2023-05-14T09:44:12.401Z,18.15
2023-05-14T09:46:14.098Z,17.68
2023-05-14T09:48:16.555Z,17.59
2023-05-14T09:50:18.238Z,17.52
2023-05-14T09:52:20.410Z,17.10
2023-05-14T09:54:22.505Z,17.24
2023-05-14T09:56:24.404Z,17.23
2023-05-14T09:58:26.513Z,17.33
2023-05-14T10:00:28.322Z,17.02
2023-05-14T10:02:38.306Z,17.29
2023-05-14T10:04:40.679Z,17.38
2023-05-14T10:06:43.810Z,17.49
2023-05-14T10:08:48.960Z,17.30
2023-05-14T10:10:51.702Z,17.54
2023-05-14T10:12:57.759Z,17.68
2023-05-14T10:15:03.918Z,17.42
2023-05-14T10:17:06.270Z,17.33
2023-05-14T10:19:11.331Z,17.32
2023-05-14T10:21:15.025Z,16.68
2023-05-14T10:23:17.300Z,16.78
2023-05-14T10:25:19.458Z,16.76
2023-05-14T10:27:22.412Z,16.04
2023-05-14T10:29:38.036Z,16.14
2023-05-14T10:31:47.804Z,16.20
2023-05-14T10:33:50.892Z,16.28
2023-05-14T10:35:58.376Z,16.32
2023-05-14T10:37:59.997Z,16.46
2023-05-14T10:40:06.233Z,16.56
2023-05-14T10:42:22.013Z,16.58
2023-05-14T10:44:23.853Z,16.69
2023-05-14T10:46:25.608Z,16.85
2023-05-14T10:48:27.488Z,17.08
2023-05-14T10:50:29.585Z,17.51
2023-05-14T10:52:31.718Z,17.80
2023-05-14T10:54:35.767Z,18.10
2023-05-14T10:56:37.564Z,18.27
2023-05-14T10:58:42.226Z,18.49
2023-05-14T11:00:48.637Z,18.61
2023-05-14T11:02:56.979Z,18.74
2023-05-14T11:05:06.859Z,18.67
2023-05-14T11:07:09.389Z,18.68
2023-05-14T11:09:17.508Z,18.72
2023-05-14T11:11:19.065Z,18.59
2023-05-14T11:13:21.452Z,18.45
2023-05-14T11:15:24.836Z,18.49
2023-05-14T11:17:27.919Z,18.68
2023-05-14T11:19:29.590Z,18.98
2023-05-14T11:21:32.664Z,19.11
2023-05-14T11:23:34.357Z,19.20
2023-05-14T11:25:36.164Z,19.28
2023-05-14T11:27:39.108Z,19.35
2023-05-14T11:29:45.121Z,18.76
2023-05-14T11:31:47.546Z,18.52
2023-05-14T11:33:49.150Z,18.53
2023-05-14T11:35:51.956Z,18.96
2023-05-14T11:37:53.802Z,19.18
2023-05-14T11:39:56.479Z,19.04
2023-05-14T11:41:59.122Z,19.39
2023-05-14T11:44:03.344Z,19.68
2023-05-14T11:46:05.312Z,19.68
2023-05-14T11:48:15.841Z,19.78
2023-05-14T11:50:17.482Z,19.87
2023-05-14T11:52:19.545Z,19.71
2023-05-14T11:54:21.401Z,20.07
2023-05-14T11:56:23.240Z,20.45
2023-05-14T11:58:24.833Z,20.90
2023-05-14T12:00:26.539Z,20.99
2023-05-14T12:02:29.469Z,21.26
2023-05-14T12:04:31.971Z,21.15
2023-05-14T12:06:33.675Z,21.20
2023-05-14T12:08:35.262Z,21.16
2023-05-14T12:10:43.003Z,21.50
2023-05-14T12:12:47.552Z,22.07
2023-05-14T12:14:50.672Z,22.34
2023-05-14T12:16:52.277Z,22.38
2023-05-14T12:18:53.903Z,22.53
2023-05-14T12:20:55.927Z,22.59
2023-05-14T12:22:57.530Z,22.42
2023-05-14T12:25:00.272Z,21.96
2023-05-14T12:27:02.988Z,21.43
2023-05-14T12:29:06.956Z,21.17
2023-05-14T12:31:08.683Z,21.45
2023-05-14T12:33:10.468Z,21.35
2023-05-14T12:35:12.149Z,21.42
2023-05-14T12:37:13.749Z,21.15
2023-05-14T12:39:15.318Z,21.37
2023-05-14T12:41:17.821Z,21.98
2023-05-14T12:43:20.065Z,21.98
2023-05-14T12:45:22.120Z,22.80
2023-05-14T12:47:23.798Z,23.53
2023-05-14T12:49:25.542Z,24.26
2023-05-14T12:51:27.489Z,24.60
2023-05-14T12:53:28.951Z,24.56
2023-05-14T12:55:30.580Z,24.64
2023-05-14T12:57:32.345Z,24.65
2023-05-14T12:59:33.918Z,24.75
2023-05-14T13:01:35.541Z,24.44
2023-05-14T13:03:37.375Z,24.45
2023-05-14T13:05:39.014Z,24.41
2023-05-14T13:07:40.694Z,24.16
2023-05-14T13:09:42.268Z,23.76
2023-05-14T13:11:43.804Z,23.46
2023-05-14T13:13:45.316Z,23.18
2023-05-14T13:15:46.999Z,23.03
2023-05-14T13:17:48.917Z,23.06
2023-05-14T13:19:50.525Z,23.87
2023-05-14T13:21:52.070Z,24.66
2023-05-14T13:23:53.834Z,24.08
2023-05-14T13:25:55.629Z,24.51
2023-05-14T13:27:57.215Z,25.33
2023-05-14T13:29:58.975Z,26.41
2023-05-14T13:32:00.532Z,27.14
2023-05-14T13:34:02.582Z,27.62
2023-05-14T13:36:04.794Z,28.03
2023-05-14T13:38:08.034Z,27.69
2023-05-14T13:40:10.537Z,27.41
2023-05-14T13:42:12.243Z,27.10
2023-05-14T13:44:13.814Z,26.31
2023-05-14T13:46:16.001Z,26.34
2023-05-14T13:48:17.785Z,25.92
2023-05-14T13:50:19.429Z,26.58
2023-05-14T13:52:21.590Z,27.22
2023-05-14T13:54:23.210Z,27.65
2023-05-14T13:56:24.717Z,27.74
2023-05-14T13:58:26.689Z,27.37
2023-05-14T14:00:28.951Z,27.50
2023-05-14T14:02:31.852Z,28.14
2023-05-14T14:04:34.500Z,28.60
2023-05-14T14:06:36.086Z,28.71
2023-05-14T14:08:37.650Z,28.82
2023-05-14T14:10:41.102Z,28.03
2023-05-14T14:12:42.688Z,28.55
2023-05-14T14:14:44.454Z,28.52
2023-05-14T14:16:46.032Z,28.60
2023-05-14T14:18:47.856Z,29.17
2023-05-14T14:20:49.607Z,29.64
2023-05-14T14:22:51.185Z,30.12
2023-05-14T14:24:54.561Z,30.05
2023-05-14T14:26:56.169Z,28.26
2023-05-14T14:28:58.366Z,25.86
2023-05-14T14:31:00.152Z,26.31
2023-05-14T14:33:02.403Z,27.21
2023-05-14T14:35:04.302Z,27.33
2023-05-14T14:37:06.206Z,27.58
2023-05-14T14:39:07.767Z,28.09
2023-05-14T14:41:10.181Z,27.80
2023-05-14T14:43:11.937Z,28.03
2023-05-14T14:45:13.491Z,28.46
2023-05-14T14:47:15.138Z,28.70
2023-05-14T14:49:16.773Z,29.26
2023-05-14T14:51:18.368Z,28.31
2023-05-14T14:53:21.621Z,28.71
2023-05-14T14:55:23.855Z,29.07
2023-05-14T14:57:26.636Z,29.74
2023-05-14T14:59:28.240Z,29.61
2023-05-14T15:01:30.424Z,29.16
2023-05-14T15:03:32.574Z,29.09
2023-05-14T15:05:34.743Z,28.74
2023-05-14T15:07:36.732Z,28.00
2023-05-14T15:09:38.572Z,27.64
2023-05-14T15:11:40.625Z,27.09
2023-05-14T15:13:42.965Z,26.63
2023-05-14T15:15:45.010Z,25.62
2023-05-14T15:17:46.631Z,25.11
2023-05-14T15:19:48.269Z,24.62
2023-05-14T15:21:50.060Z,24.46
2023-05-14T15:23:51.536Z,24.04
2023-05-14T15:25:53.776Z,23.86
2023-05-14T15:27:55.441Z,23.54
2023-05-14T15:29:57.004Z,23.27
2023-05-14T15:31:58.902Z,23.14
2023-05-14T15:34:01.206Z,22.97
2023-05-14T15:36:03.061Z,22.85
2023-05-14T15:38:04.703Z,22.85
2023-05-14T15:40:10.339Z,23.28
2023-05-14T15:42:11.997Z,23.81
2023-05-14T15:44:13.718Z,24.22
2023-05-14T15:46:15.308Z,24.35
2023-05-14T15:48:17.016Z,24.76
2023-05-14T15:50:18.763Z,25.19
2023-05-14T15:52:21.358Z,25.37
2023-05-14T15:54:23.081Z,25.25
2023-05-14T15:56:25.467Z,25.12
2023-05-14T15:58:28.589Z,24.95
2023-05-14T16:00:36.157Z,24.87
2023-05-14T16:02:39.333Z,24.51
2023-05-14T16:04:41.569Z,24.41
2023-05-14T16:06:44.858Z,24.14
2023-05-14T16:08:46.811Z,23.97
2023-05-14T16:10:48.364Z,23.76
2023-05-14T16:12:49.948Z,23.61
2023-05-14T16:14:51.573Z,22.58
2023-05-14T16:16:54.245Z,21.72
2023-05-14T16:18:56.013Z,21.35
2023-05-14T16:20:58.268Z,20.80
2023-05-14T16:22:59.876Z,19.50
2023-05-14T16:25:03.404Z,19.98
2023-05-14T16:27:06.119Z,20.14
2023-05-14T16:29:07.767Z,20.09
2023-05-14T16:31:09.412Z,20.35
2023-05-14T16:33:11.818Z,20.57
2023-05-14T16:35:13.738Z,20.50
2023-05-14T16:37:16.595Z,20.67
2023-05-14T16:39:18.295Z,20.78
2023-05-14T16:41:21.453Z,20.81
2023-05-14T16:43:22.997Z,20.90
2023-05-14T16:45:25.135Z,21.04
2023-05-14T16:47:27.016Z,20.78
2023-05-14T16:49:28.776Z,20.70
2023-05-14T16:51:30.382Z,20.81
2023-05-14T16:53:32.048Z,20.89
2023-05-14T16:55:33.675Z,20.93
2023-05-14T16:57:35.505Z,20.87
2023-05-14T16:59:37.131Z,20.91
2023-05-14T17:01:38.818Z,21.07
2023-05-14T17:03:40.808Z,21.20
2023-05-14T17:05:42.399Z,21.27
2023-05-14T17:07:44.028Z,21.25
2023-05-14T17:09:45.705Z,21.33
2023-05-14T17:11:47.412Z,21.63
2023-05-14T17:13:49.026Z,21.57
2023-05-14T17:15:50.862Z,21.54
2023-05-14T17:17:52.568Z,21.57
2023-05-14T17:19:54.140Z,21.67
2023-05-14T17:21:55.831Z,21.52
2023-05-14T17:23:57.858Z,21.55
2023-05-14T17:26:01.126Z,21.43
2023-05-14T17:28:02.655Z,21.43
2023-05-14T17:30:04.803Z,21.40
2023-05-14T17:32:07.865Z,21.47
2023-05-14T17:34:09.555Z,21.26
2023-05-14T17:36:11.166Z,21.00
2023-05-14T17:38:12.969Z,20.09
2023-05-14T17:40:14.612Z,19.92
2023-05-14T17:42:17.667Z,19.91
2023-05-14T17:44:19.376Z,19.93
2023-05-14T17:46:21.367Z,19.92
2023-05-14T17:48:23.867Z,19.86
2023-05-14T17:50:25.585Z,19.51
2023-05-14T17:52:27.716Z,18.92
2023-05-14T17:54:29.606Z,18.29
2023-05-14T17:56:31.185Z,18.38
2023-05-14T17:58:32.985Z,18.57
2023-05-14T18:00:34.979Z,18.61
2023-05-14T18:02:36.607Z,18.68
2023-05-14T18:04:38.195Z,18.71
2023-05-14T18:06:39.804Z,18.79
2023-05-14T18:08:41.677Z,18.77
2023-05-14T18:10:43.393Z,18.79
2023-05-14T18:12:44.944Z,18.79
2023-05-14T18:14:46.590Z,18.43
2023-05-14T18:16:48.296Z,18.18
2023-05-14T18:18:53.408Z,18.23
2023-05-14T18:20:55.165Z,18.11
2023-05-14T18:22:56.752Z,17.94
2023-05-14T18:24:58.614Z,17.92
2023-05-14T18:27:00.486Z,17.85
2023-05-14T18:29:02.068Z,17.85
2023-05-14T18:31:06.884Z,17.37
2023-05-14T18:33:08.493Z,16.93
2023-05-14T18:35:10.642Z,16.71
2023-05-14T18:37:12.254Z,16.45
2023-05-14T18:39:13.805Z,15.99
2023-05-14T18:41:15.436Z,15.86
2023-05-14T18:43:18.410Z,15.70
2023-05-14T18:45:20.223Z,15.62
2023-05-14T18:47:21.879Z,15.40
2023-05-14T18:49:23.606Z,15.25
2023-05-14T18:51:25.334Z,15.03
2023-05-14T18:53:27.220Z,14.70
2023-05-14T18:55:28.975Z,14.63
2023-05-14T18:57:32.597Z,14.58
2023-05-14T18:59:34.602Z,14.48
2023-05-14T19:01:36.370Z,14.46
2023-05-14T19:03:38.403Z,14.39
2023-05-14T19:05:40.093Z,14.35
2023-05-14T19:07:42.826Z,13.67
2023-05-14T19:09:44.460Z,13.11
2023-05-14T19:11:46.837Z,12.81
2023-05-14T19:13:49.612Z,12.70
2023-05-14T19:15:51.549Z,12.59
2023-05-14T19:17:54.033Z,12.77
2023-05-14T19:19:56.034Z,12.68
2023-05-14T19:21:58.203Z,12.48
2023-05-14T19:24:00.208Z,12.33
2023-05-14T19:26:02.042Z,12.31
2023-05-14T19:28:05.008Z,12.25
2023-05-14T19:30:07.404Z,12.55
2023-05-14T19:32:09.741Z,12.78
2023-05-14T19:34:11.337Z,12.95
2023-05-14T19:36:12.913Z,13.07
2023-05-14T19:38:14.906Z,13.20
2023-05-14T19:40:16.599Z,13.06
2023-05-14T19:42:18.418Z,13.09
2023-05-14T19:44:20.177Z,13.31
2023-05-14T19:46:21.811Z,13.37
2023-05-14T19:48:23.552Z,13.41
2023-05-14T19:50:25.783Z,13.36
2023-05-14T19:52:27.470Z,13.35
2023-05-14T19:54:29.590Z,13.51
2023-05-14T19:56:31.361Z,13.50
2023-05-14T19:58:32.995Z,13.35
2023-05-14T20:00:34.593Z,13.32
2023-05-14T20:02:36.380Z,13.08
2023-05-14T20:04:39.977Z,13.27
2023-05-14T20:06:45.314Z,13.28
2023-05-14T20:08:46.929Z,13.23
2023-05-14T20:10:48.649Z,13.15
2023-05-14T20:12:50.381Z,13.02
2023-05-14T20:14:52.468Z,12.95
2023-05-14T20:16:54.562Z,12.91
2023-05-14T20:18:56.683Z,12.73
2023-05-14T20:20:58.389Z,12.48
2023-05-14T20:23:00.161Z,12.71
2023-05-14T20:25:01.739Z,12.81
2023-05-14T20:27:03.722Z,12.87
2023-05-14T20:29:05.720Z,12.77
2023-05-14T20:31:07.922Z,12.74
2023-05-14T20:33:09.564Z,12.89
2023-05-14T20:35:11.198Z,12.97
2023-05-14T20:37:13.046Z,13.01
2023-05-14T20:39:16.365Z,12.95
2023-05-14T20:41:18.358Z,12.92
2023-05-14T20:43:20.267Z,12.96
2023-05-14T20:45:21.871Z,12.96
2023-05-14T20:47:26.536Z,12.96
2023-05-14T20:49:28.506Z,12.91
2023-05-14T20:51:30.304Z,12.80
2023-05-14T20:53:33.262Z,12.76
2023-05-14T20:55:35.215Z,12.48
2023-05-14T20:57:37.342Z,12.39
2023-05-14T20:59:39.135Z,12.34
2023-05-14T21:01:42.538Z,12.17
2023-05-14T21:03:44.386Z,12.18
2023-05-14T21:05:46.225Z,12.07
2023-05-14T21:07:48.256Z,12.12
2023-05-14T21:09:52.206Z,12.08
2023-05-14T21:11:54.321Z,12.04
2023-05-14T21:13:55.982Z,12.00
2023-05-14T21:15:57.612Z,11.95
2023-05-14T21:17:59.273Z,11.91
2023-05-14T21:20:00.985Z,11.87
2023-05-14T21:22:02.554Z,11.82
2023-05-14T21:24:04.404Z,11.71
2023-05-14T21:26:06.127Z,11.64
2023-05-14T21:28:07.739Z,11.56
2023-05-14T21:30:09.900Z,11.47
2023-05-14T21:32:11.768Z,11.26
2023-05-14T21:34:13.433Z,11.05
2023-05-14T21:36:15.214Z,10.73
2023-05-14T21:38:16.959Z,10.77
2023-05-14T21:40:18.534Z,10.77
2023-05-14T21:42:21.139Z,10.71
2023-05-14T21:44:22.917Z,10.76
2023-05-14T21:46:25.672Z,10.77
2023-05-14T21:48:28.493Z,10.75
2023-05-14T21:50:30.374Z,10.69
2023-05-14T21:52:31.978Z,10.55
2023-05-14T21:54:33.565Z,10.29
2023-05-14T21:56:36.021Z,10.39
2023-05-14T21:58:37.627Z,10.38
2023-05-14T22:00:39.401Z,10.27
2023-05-14T22:02:41.030Z,10.28
2023-05-14T22:04:42.602Z,10.28
2023-05-14T22:06:44.286Z,10.09
2023-05-14T22:08:45.904Z,10.13
2023-05-14T22:10:47.482Z,10.05
2023-05-14T22:12:49.115Z,9.90
2023-05-14T22:14:50.688Z,9.97
2023-05-14T22:16:52.363Z,9.94
2023-05-14T22:18:54.044Z,9.75
2023-05-14T22:20:55.599Z,9.65
2023-05-14T22:22:57.211Z,9.71
2023-05-14T22:24:58.805Z,9.74
2023-05-14T22:27:00.364Z,9.66
2023-05-14T22:29:01.946Z,9.67
2023-05-14T22:31:04.159Z,9.47
2023-05-14T22:33:05.779Z,9.52
2023-05-14T22:35:07.796Z,9.50
2023-05-14T22:37:09.458Z,9.45
2023-05-14T22:39:12.743Z,9.19
2023-05-14T22:41:17.339Z,9.00
2023-05-14T22:43:18.979Z,9.08
2023-05-14T22:45:20.616Z,9.11
2023-05-14T22:47:22.236Z,9.05
2023-05-14T22:49:23.977Z,8.89
2023-05-14T22:51:25.992Z,8.86
2023-05-14T22:53:27.566Z,8.98
2023-05-14T22:55:29.774Z,8.95
2023-05-14T22:57:32.171Z,9.00
2023-05-14T22:59:33.807Z,9.03
2023-05-14T23:01:35.626Z,8.78
2023-05-14T23:03:37.222Z,8.85
2023-05-14T23:05:38.876Z,8.73
2023-05-14T23:07:40.597Z,8.62
2023-05-14T23:09:42.173Z,8.56
2023-05-14T23:11:43.760Z,8.42
2023-05-14T23:13:45.330Z,8.52
2023-05-14T23:15:47.290Z,8.39
2023-05-14T23:17:49.121Z,8.35
2023-05-14T23:19:50.922Z,8.44
2023-05-14T23:21:52.456Z,8.38
2023-05-14T23:23:54.033Z,8.26
2023-05-14T23:25:56.152Z,8.36
2023-05-14T23:27:57.717Z,8.49
2023-05-14T23:29:59.340Z,8.55
2023-05-14T23:32:00.915Z,8.55
2023-05-14T23:34:02.853Z,8.58
2023-05-14T23:36:04.967Z,8.60
2023-05-14T23:38:07.381Z,8.60
2023-05-14T23:40:09.566Z,8.50
2023-05-14T23:42:11.120Z,8.36
2023-05-14T23:44:12.746Z,8.45
2023-05-14T23:46:15.326Z,8.44
2023-05-14T23:48:18.106Z,8.37
2023-05-14T23:50:19.705Z,8.16
2023-05-14T23:52:21.267Z,8.09
2023-05-14T23:54:22.934Z,8.11
2023-05-14T23:56:25.871Z,8.10
2023-05-14T23:58:29.830Z,8.02
